Time;durP1;ratioP1;P1;durP2;ratioP2;P2;SDS_P1;SDS_P2;PMS_P1;PMS_P2;Temp;Humidity;BMP_temperature;BMP_pressure;BME280_temperature;BME280_humidity;BME280_pressure;Samples;Min_cycle;Max_cycle;Signal;HPM_P1;HPM_P2
2024/04/10 00:00:33;;;;;;;7.60;3.20;;;;;;;22.56;52.47;101168.89;2271967;77;50698;-81
2024/04/10 00:03:35;;;;;;;8.68;3.72;;;;;;;22.56;52.43;101168.06;2223220;77;51018;-82
2024/04/10 00:06:38;;;;;;;6.78;3.25;;;;;;;22.54;52.45;101160.68;2286292;77;50681;-82
2024/04/10 00:09:40;;;;;;;7.00;3.10;;;;;;;22.53;52.39;101146.86;2286722;77;51468;-82
2024/04/10 00:12:42;;;;;;;8.30;3.52;;;;;;;22.53;52.34;101147.72;2272242;77;49624;-82
2024/04/10 00:15:45;;;;;;;9.45;4.00;;;;;;;22.51;52.40;101146.25;2247281;76;50566;-83
2024/04/10 00:18:47;;;;;;;10.00;3.47;;;;;;;22.51;52.41;101135.45;2286553;77;52476;-82
2024/04/10 00:21:51;;;;;;;8.08;3.47;;;;;;;22.52;52.39;101133.06;2286538;77;52110;-83
2024/04/10 00:24:53;;;;;;;7.80;3.22;;;;;;;22.52;52.38;101138.46;2287298;77;22389;-83
2024/04/10 00:27:55;;;;;;;8.83;3.10;;;;;;;22.53;52.27;101140.97;2272846;77;50109;-81
2024/04/10 00:30:57;;;;;;;8.38;3.10;;;;;;;22.53;52.30;101145.51;2273047;76;51521;-81
2024/04/10 00:34:00;;;;;;;8.23;2.98;;;;;;;22.53;52.29;101146.37;2287590;77;50668;-82
2024/04/10 00:37:02;;;;;;;8.95;3.40;;;;;;;22.52;52.26;101142.50;2272903;76;50104;-82
2024/04/10 00:40:04;;;;;;;7.10;3.22;;;;;;;22.51;52.27;101138.16;2287645;77;50145;-82
2024/04/10 00:43:07;;;;;;;7.05;3.12;;;;;;;22.51;52.24;101135.45;2273300;77;51669;-83
2024/04/10 00:46:18;;;;;;;6.92;3.00;;;;;;;22.50;52.24;101136.47;2248558;77;51736;-83
2024/04/10 00:49:20;;;;;;;6.25;2.75;;;;;;;22.50;52.14;101137.82;2287340;76;50771;-82
2024/04/10 00:52:23;;;;;;;7.50;2.95;;;;;;;22.48;52.15;101150.17;2248291;76;50994;-82
2024/04/10 00:55:25;;;;;;;7.37;3.37;;;;;;;22.48;52.08;101162.80;2287562;76;50958;-82
2024/04/10 00:58:27;;;;;;;6.80;2.90;;;;;;;22.46;51.98;101167.05;2287858;77;50963;-82
2024/04/10 01:01:29;;;;;;;7.03;2.90;;;;;;;22.48;52.00;101183.02;2273405;77;50987;-84
2024/04/10 01:04:32;;;;;;;5.25;2.42;;;;;;;22.48;51.87;101194.66;2287442;77;50615;-83
2024/04/10 01:07:34;;;;;;;6.28;3.20;;;;;;;22.46;51.86;101189.15;2287422;76;51607;-83
2024/04/10 01:10:36;;;;;;;6.05;2.80;;;;;;;22.46;51.74;101198.06;2287612;77;51461;-83
2024/04/10 01:13:38;;;;;;;7.37;2.83;;;;;;;22.45;51.64;101187.47;2287816;76;51460;-83
2024/04/10 01:16:40;;;;;;;7.80;2.42;;;;;;;22.45;51.58;101184.77;2272957;77;49631;-82
2024/04/10 01:19:43;;;;;;;7.42;2.80;;;;;;;22.45;51.58;101207.69;2287418;76;50426;-82
2024/04/10 01:22:45;;;;;;;8.23;2.80;;;;;;;22.43;51.54;101209.25;2273176;77;51310;-81
2024/04/10 01:25:47;;;;;;;7.03;2.65;;;;;;;22.44;51.61;101220.34;2248122;76;49520;-83
2024/04/10 01:28:49;;;;;;;7.28;2.47;;;;;;;22.44;51.57;101207.38;2287396;76;50658;-83
2024/04/10 01:31:52;;;;;;;6.03;2.52;;;;;;;22.44;51.80;101224.91;2272968;77;50168;-83
2024/04/10 01:34:54;;;;;;;8.25;2.75;;;;;;;22.44;51.58;101233.00;2287418;76;50607;-82
2024/04/10 01:37:56;;;;;;;5.97;2.40;;;;;;;22.43;51.62;101237.56;2287423;76;51556;-82
2024/04/10 01:40:59;;;;;;;6.58;2.50;;;;;;;22.45;51.50;101244.09;2273302;77;50128;-82
2024/04/10 01:44:01;;;;;;;5.83;2.67;;;;;;;22.43;51.46;101228.12;2287697;77;50731;-82
2024/04/10 01:47:03;;;;;;;6.67;2.80;;;;;;;22.44;51.41;101233.83;2287312;77;51540;-82
2024/04/10 01:50:06;;;;;;;5.78;2.90;;;;;;;22.42;51.40;101241.79;2223640;77;50155;-82
2024/04/10 01:53:08;;;;;;;6.95;2.87;;;;;;;22.43;51.27;101229.96;2287239;76;50722;-83
2024/04/10 01:56:10;;;;;;;6.53;2.67;;;;;;;22.41;51.28;101225.30;2287335;76;50735;-82
2024/04/10 01:59:13;;;;;;;6.42;2.58;;;;;;;22.39;51.17;101229.53;2287288;76;51489;-82
2024/04/10 02:02:15;;;;;;;7.65;2.50;;;;;;;22.39;51.17;101227.66;2273012;77;51070;-83
2024/04/10 02:05:17;;;;;;;5.25;2.20;;;;;;;22.39;51.15;101246.53;2272647;77;51038;-83
2024/04/10 02:08:19;;;;;;;5.55;2.65;;;;;;;22.39;51.12;101229.01;2287432;77;51488;-83
2024/04/10 02:11:28;;;;;;;5.45;2.40;;;;;;;22.39;51.06;101243.01;2287572;77;50757;-83
2024/04/10 02:14:31;;;;;;;6.83;2.22;;;;;;;22.39;51.03;101251.10;2273023;76;50247;-83
2024/04/10 02:17:33;;;;;;;5.42;2.35;;;;;;;22.39;51.01;101255.97;2287533;77;50774;-83
2024/04/10 02:20:36;;;;;;;6.65;2.72;;;;;;;22.38;50.97;101248.92;2287705;77;51786;-83
2024/04/10 02:23:38;;;;;;;5.17;2.17;;;;;;;22.39;50.92;101243.01;2287691;76;50591;-83
2024/04/10 02:26:40;;;;;;;5.42;2.15;;;;;;;22.39;50.90;101245.70;2287502;76;50780;-83
2024/04/10 02:29:42;;;;;;;5.55;2.40;;;;;;;22.39;50.89;101254.63;2212309;77;49643;-83
2024/04/10 02:32:49;;;;;;;4.45;2.20;;;;;;;22.37;50.90;101255.33;2287656;77;50081;-83
2024/04/10 02:35:51;;;;;;;4.15;2.20;;;;;;;22.38;50.87;101250.79;2287169;76;50772;-83
2024/04/10 02:38:53;;;;;;;4.20;2.30;;;;;;;22.37;50.88;101250.45;2272931;76;50939;-82
2024/04/10 02:41:56;;;;;;;4.25;2.37;;;;;;;22.37;50.87;101258.54;2287393;76;51394;-82
2024/04/10 02:44:58;;;;;;;4.67;1.98;;;;;;;22.36;50.89;101263.11;2287413;76;51452;-83
2024/04/10 02:48:01;;;;;;;7.97;2.77;;;;;;;22.35;50.88;101273.58;2287542;77;50234;-83
2024/04/10 02:51:06;;;;;;;6.17;2.10;;;;;;;22.35;50.85;101278.12;2287581;76;51460;-82
2024/04/10 02:54:08;;;;;;;3.87;2.27;;;;;;;22.35;50.83;101280.33;2273126;77;51591;-83
2024/04/10 02:57:11;;;;;;;4.80;2.17;;;;;;;22.35;50.82;101284.37;2287216;77;50736;-82
2024/04/10 03:00:14;;;;;;;6.30;1.90;;;;;;;22.36;50.79;101287.38;2287202;76;51576;-82
2024/04/10 03:03:17;;;;;;;3.65;1.98;;;;;;;22.35;50.79;101293.80;2224639;77;51269;-82
2024/04/10 03:06:19;;;;;;;4.60;2.20;;;;;;;22.35;50.75;101309.98;2286997;76;50735;-83
2024/04/10 03:09:21;;;;;;;3.42;1.95;;;;;;;22.35;50.70;101299.20;2287648;77;51484;-83
2024/04/10 03:12:23;;;;;;;5.28;2.00;;;;;;;22.35;50.70;101319.42;2273369;76;50689;-83
2024/04/10 03:15:26;;;;;;;5.40;2.10;;;;;;;22.35;50.66;101322.12;2273160;77;50258;-83
2024/04/10 03:18:28;;;;;;;5.05;2.35;;;;;;;22.36;50.63;101327.81;2272949;77;51046;-83
2024/04/10 03:21:31;;;;;;;5.10;2.10;;;;;;;22.36;50.63;101343.16;2287425;76;50665;-83
2024/04/10 03:24:33;;;;;;;4.50;2.20;;;;;;;22.35;50.61;101350.91;2273119;77;50343;-83
2024/04/10 03:27:35;;;;;;;4.17;2.08;;;;;;;22.34;50.59;101348.73;2287570;77;50735;-83
2024/04/10 03:30:37;;;;;;;4.55;1.75;;;;;;;22.35;50.55;101351.78;2287548;76;50650;-82
2024/04/10 03:33:40;;;;;;;3.60;1.70;;;;;;;22.35;50.53;101368.44;2287600;77;50653;-82
2024/04/10 03:36:43;;;;;;;4.90;2.10;;;;;;;22.35;50.54;101359.86;2272818;77;51579;-82
2024/04/10 03:39:45;;;;;;;4.45;1.80;;;;;;;22.34;50.53;101363.56;2287661;77;51564;-82
2024/04/10 03:42:48;;;;;;;3.87;1.70;;;;;;;22.34;50.51;101367.61;2273552;77;51554;-82
2024/04/10 03:45:51;;;;;;;7.55;2.27;;;;;;;22.34;50.50;101373.00;2272885;77;50172;-83
2024/04/10 03:48:53;;;;;;;3.10;1.77;;;;;;;22.33;50.50;101375.91;2287222;76;50686;-81
2024/04/10 03:51:55;;;;;;;4.75;1.87;;;;;;;22.33;50.50;101387.52;2273211;77;50354;-83
2024/04/10 03:54:58;;;;;;;3.65;1.98;;;;;;;22.33;50.48;101387.52;2272948;77;50581;-82
2024/04/10 03:58:00;;;;;;;4.80;1.85;;;;;;;22.33;50.47;101390.22;2287390;77;52536;-82
2024/04/10 04:01:02;;;;;;;4.62;1.90;;;;;;;22.33;50.48;101393.44;2273132;77;50078;-82
2024/04/10 04:04:05;;;;;;;3.92;1.70;;;;;;;22.32;50.45;101392.58;2287346;76;50305;-83
2024/04/10 04:07:07;;;;;;;3.83;1.80;;;;;;;22.32;50.46;101395.27;2272678;77;50707;-83
2024/04/10 04:10:09;;;;;;;5.08;1.87;;;;;;;22.32;50.46;101408.75;2272828;77;50267;-83
2024/04/10 04:13:11;;;;;;;4.47;1.82;;;;;;;22.32;50.46;101408.75;2272801;77;50215;-81
2024/04/10 04:16:14;;;;;;;4.67;1.82;;;;;;;22.31;50.44;101411.14;2287120;76;50254;-83
2024/04/10 04:19:16;;;;;;;2.65;1.70;;;;;;;22.33;50.42;101421.74;2286656;76;52039;-82
2024/04/10 04:22:18;;;;;;;4.92;2.00;;;;;;;22.32;50.43;101428.97;2285970;76;50227;-82
2024/04/10 04:25:20;;;;;;;5.30;2.00;;;;;;;22.32;50.40;101429.49;2271257;77;49657;-82
2024/04/10 04:28:22;;;;;;;5.15;1.57;;;;;;;22.31;50.41;101436.75;2285794;76;50711;-82
2024/04/10 04:31:25;;;;;;;4.00;1.60;;;;;;;22.31;50.41;101440.80;2285933;77;51515;-81
2024/04/10 04:34:27;;;;;;;12.13;2.10;;;;;;;22.31;50.46;101439.45;2271361;77;50939;-81
2024/04/10 04:37:29;;;;;;;4.33;1.80;;;;;;;22.31;50.59;101448.05;2285817;77;51473;-81
2024/04/10 04:40:32;;;;;;;5.40;1.95;;;;;;;22.30;50.75;101453.96;2285939;77;50959;-81
2024/04/10 04:43:34;;;;;;;5.20;1.60;;;;;;;22.31;50.76;101467.75;2285861;75;50750;-80
2024/04/10 04:46:37;;;;;;;6.72;1.98;;;;;;;22.30;50.70;101484.97;2285268;77;51462;-81
2024/04/10 04:49:39;;;;;;;7.28;2.05;;;;;;;22.31;51.11;101493.38;2246278;77;50098;-81
2024/04/10 04:52:41;;;;;;;25.68;2.45;;;;;;;22.32;51.82;101495.55;2285615;75;51349;-80
2024/04/10 04:55:44;;;;;;;10.28;1.85;;;;;;;22.32;51.95;101507.69;2285326;77;50773;-81
2024/04/10 04:58:46;;;;;;;10.78;2.10;;;;;;;22.32;52.05;101525.20;2246249;77;52499;-81
2024/04/10 05:01:48;;;;;;;10.18;2.10;;;;;;;22.33;52.09;101515.59;2285477;77;50656;-80
2024/04/10 05:05:02;;;;;;;23.70;2.58;;;;;;;22.34;52.08;101530.73;2285696;77;50190;-79
2024/04/10 05:08:04;;;;;;;12.25;2.55;;;;;;;22.36;52.19;101528.70;2285684;77;22847;-81
2024/04/10 05:11:09;;;;;;;21.60;3.00;;;;;;;22.37;52.18;101533.58;2246555;77;50684;-80
2024/04/10 05:14:11;;;;;;;;;;;;;;;22.34;52.47;101532.09;2274069;77;49723;-83
2024/04/10 05:17:13;;;;;;;22.10;3.12;;;;;;;22.36;52.42;101550.27;2271307;77;51442;-84
2024/04/10 05:20:16;;;;;;;23.07;3.58;;;;;;;22.36;53.06;101548.92;2285868;77;51618;-81
2024/04/10 05:23:18;;;;;;;18.55;3.30;;;;;;;22.37;53.06;101555.98;2271259;77;49577;-82
2024/04/10 05:26:20;;;;;;;20.57;3.40;;;;;;;22.41;53.18;101556.98;2285544;76;51626;-82
2024/04/10 05:29:23;;;;;;;24.15;3.37;;;;;;;22.42;53.14;101559.98;2285973;77;50345;-82
2024/04/10 05:32:25;;;;;;;16.73;3.25;;;;;;;22.43;53.18;101568.39;2271401;77;49471;-82
2024/04/10 05:35:27;;;;;;;22.13;3.35;;;;;;;22.43;53.06;101564.34;2285808;75;51560;-83
2024/04/10 05:38:32;;;;;;;25.60;2.72;;;;;;;22.42;53.11;101568.08;2286115;77;50727;-81
2024/04/10 05:41:35;;;;;;;13.55;2.25;;;;;;;22.42;52.62;101576.16;2271777;77;51009;-83
2024/04/10 05:44:37;;;;;;;10.10;2.70;;;;;;;22.41;52.50;101579.90;2286000;77;50403;-81
2024/04/10 05:47:41;;;;;;;15.10;2.40;;;;;;;22.39;52.30;101581.42;2271667;76;50072;-83
2024/04/10 05:50:43;;;;;;;11.00;2.40;;;;;;;22.39;52.06;101594.38;2280551;75;51621;-83
2024/04/10 05:53:47;;;;;;;14.23;2.58;;;;;;;22.38;51.88;101598.12;2314434;76;51467;-83
2024/04/10 05:56:49;;;;;;;14.10;2.80;;;;;;;22.37;51.80;101586.98;2313170;76;25098;-82
2024/04/10 05:59:55;;;;;;;22.60;2.40;;;;;;;22.37;51.76;101584.80;2289011;77;50651;-82
2024/04/10 06:02:57;;;;;;;21.20;3.00;;;;;;;22.37;51.72;101591.03;2325120;75;50953;-81
2024/04/10 06:06:12;;;;;;;9.63;2.47;;;;;;;22.38;51.94;101595.42;2354907;75;50218;-82
2024/04/10 06:09:14;;;;;;;20.90;2.67;;;;;;;22.37;51.73;101603.68;2357383;75;22988;-82
2024/04/10 06:12:16;;;;;;;14.00;3.05;;;;;;;22.37;51.87;101605.86;2330018;75;50080;-82
2024/04/10 06:15:18;;;;;;;13.35;2.65;;;;;;;22.36;51.59;101612.81;2354631;75;50406;-82
2024/04/10 06:18:20;;;;;;;14.23;2.45;;;;;;;22.35;51.70;101618.72;2355178;75;50778;-81
2024/04/10 06:21:22;;;;;;;12.60;2.98;;;;;;;22.35;51.55;101621.90;2330447;75;52488;-81
2024/04/10 06:24:25;;;;;;;13.10;2.37;;;;;;;22.34;51.44;101621.06;2330824;75;50983;-81
2024/04/10 06:27:27;;;;;;;13.68;2.35;;;;;;;22.35;51.36;101617.37;2356035;75;50427;-81
2024/04/10 06:30:29;;;;;;;13.65;2.52;;;;;;;22.36;51.29;101615.50;2356818;75;50720;-86
2024/04/10 06:33:31;;;;;;;10.70;2.30;;;;;;;22.37;51.12;101623.91;2331072;75;50719;-85
2024/04/10 06:36:33;;;;;;;12.68;2.52;;;;;;;22.35;51.39;101631.34;2331533;75;49249;-84
2024/04/10 06:39:36;;;;;;;12.03;2.62;;;;;;;22.34;51.38;101628.33;2355803;75;50744;-84
2024/04/10 06:42:38;;;;;;;8.45;1.98;;;;;;;22.33;51.35;101634.23;2356026;75;51538;-82
2024/04/10 06:45:40;;;;;;;10.18;2.75;;;;;;;22.33;51.33;101645.02;2333880;75;50177;-84
2024/04/10 06:48:44;;;;;;;10.65;2.47;;;;;;;22.33;51.30;101638.28;2358354;75;50673;-84
2024/04/10 06:51:46;;;;;;;9.18;2.10;;;;;;;22.34;51.28;101645.33;2307290;75;52141;-85
2024/04/10 06:54:48;;;;;;;9.10;2.25;;;;;;;22.34;51.26;101652.08;2330371;75;50105;-85
2024/04/10 06:57:51;;;;;;;13.60;2.42;;;;;;;22.34;51.23;101646.69;2328693;75;50331;-85
2024/04/10 07:01:04;;;;;;;11.05;2.40;;;;;;;22.35;51.20;101653.77;2329902;75;50974;-85
2024/04/10 07:04:06;;;;;;;12.65;2.37;;;;;;;22.35;51.17;101663.21;2330038;75;51443;-84
2024/04/10 07:07:08;;;;;;;11.40;2.27;;;;;;;22.36;51.13;101666.73;2354780;75;51344;-85
2024/04/10 07:10:11;;;;;;;8.98;2.40;;;;;;;22.36;51.09;101675.66;2303849;75;51119;-85
2024/04/10 07:13:13;;;;;;;9.30;1.80;;;;;;;22.34;51.09;101664.73;2303747;75;50954;-84
2024/04/10 07:16:15;;;;;;;7.65;1.95;;;;;;;22.35;51.06;101678.52;2355168;75;50364;-85
2024/04/10 07:19:17;;;;;;;7.67;2.10;;;;;;;22.35;51.06;101683.43;2328950;75;51473;-84
2024/04/10 07:22:19;;;;;;;8.13;2.20;;;;;;;22.36;51.05;101697.75;2330513;75;51487;-84
2024/04/10 07:25:22;;;;;;;8.55;2.17;;;;;;;22.34;51.02;101690.34;2330265;75;50980;-84
2024/04/10 07:28:24;;;;;;;9.73;2.27;;;;;;;22.34;50.99;101696.56;2330971;75;51673;-85
2024/04/10 07:31:36;;;;;;;7.53;2.20;;;;;;;22.35;50.96;101698.27;2355970;75;50209;-83
2024/04/10 07:34:37;;;;;;;7.33;2.20;;;;;;;22.35;50.96;101702.31;2331648;75;21745;-83
2024/04/10 07:37:40;;;;;;;8.05;2.20;;;;;;;22.34;50.93;101703.83;2356072;75;50838;-83
2024/04/10 07:40:43;;;;;;;9.33;2.17;;;;;;;22.35;50.90;101705.48;2355960;75;51517;-84
2024/04/10 07:43:46;;;;;;;7.00;1.92;;;;;;;22.34;50.89;101710.05;2331253;75;52230;-85
2024/04/10 07:46:48;;;;;;;12.20;2.30;;;;;;;22.34;50.88;101724.87;2355521;75;51549;-83
2024/04/10 07:49:52;;;;;;;8.43;2.20;;;;;;;22.34;50.88;101723.53;2330517;75;50098;-83
2024/04/10 07:52:54;;;;;;;8.05;1.90;;;;;;;22.33;50.87;101725.08;2330837;75;50772;-84
2024/04/10 07:55:56;;;;;;;11.85;1.98;;;;;;;22.33;50.89;101736.70;2355314;75;51742;-83
2024/04/10 07:58:59;;;;;;;7.42;1.95;;;;;;;22.33;50.84;101738.56;2304531;75;51006;-84
2024/04/10 08:02:01;;;;;;;6.37;2.05;;;;;;;22.33;50.85;101740.74;2355811;75;50407;-85
2024/04/10 08:05:04;;;;;;;7.45;1.70;;;;;;;22.33;50.82;101749.35;2355927;75;50667;-85
2024/04/10 08:08:06;;;;;;;7.40;1.90;;;;;;;22.32;50.87;101747.14;2329654;75;50720;-85
2024/04/10 08:11:10;;;;;;;7.92;1.85;;;;;;;22.32;50.84;101743.61;2329812;75;51463;-84
2024/04/10 08:14:12;;;;;;;6.87;2.10;;;;;;;22.32;50.84;101760.62;2330601;75;51790;-84
2024/04/10 08:17:15;;;;;;;7.00;1.90;;;;;;;22.32;50.84;101766.53;2330332;75;50707;-85
2024/04/10 08:20:17;;;;;;;9.35;1.80;;;;;;;22.31;50.82;101772.44;2355942;75;50665;-84
2024/04/10 08:23:19;;;;;;;8.70;2.20;;;;;;;22.31;50.79;101777.83;2304865;75;50089;-84
2024/04/10 08:26:21;;;;;;;6.12;1.90;;;;;;;22.31;50.77;101780.53;2355770;75;50842;-84
2024/04/10 08:29:24;;;;;;;5.72;1.90;;;;;;;22.32;50.76;101781.36;2355444;75;51750;-85
2024/04/10 08:32:26;;;;;;;5.35;1.77;;;;;;;22.32;50.74;101784.89;2331252;75;51764;-85
2024/04/10 08:35:28;;;;;;;3.42;1.80;;;;;;;22.32;50.72;101787.59;2355708;75;51469;-86
2024/04/10 08:38:31;;;;;;;6.35;1.62;;;;;;;22.33;50.71;101803.28;2304761;75;50994;-84
2024/04/10 08:41:33;;;;;;;7.15;1.90;;;;;;;22.31;50.74;101803.45;2330804;75;51503;-86
2024/04/10 08:44:35;;;;;;;3.90;1.57;;;;;;;22.32;50.67;101802.41;2355834;75;51490;-86
2024/04/10 08:47:37;;;;;;;3.47;1.57;;;;;;;22.31;50.67;101801.27;2330525;75;49673;-84
2024/04/10 08:50:40;;;;;;;4.62;1.65;;;;;;;22.31;50.69;101811.53;2331116;75;50395;-84
2024/04/10 08:53:45;;;;;;;4.10;1.72;;;;;;;22.31;50.68;101812.88;2356008;75;50666;-85
2024/04/10 08:56:47;;;;;;;5.70;1.67;;;;;;;22.31;50.65;101831.76;2304726;75;49606;-85
2024/04/10 08:59:50;;;;;;;5.62;1.87;;;;;;;22.31;50.67;101843.06;2356060;75;50605;-84
2024/04/10 09:02:52;;;;;;;3.52;1.65;;;;;;;22.30;50.65;101832.79;2304923;75;50994;-85
2024/04/10 09:05:54;;;;;;;3.67;1.75;;;;;;;22.31;50.64;101837.67;2355416;75;50620;-84
2024/04/10 09:08:57;;;;;;;4.37;1.77;;;;;;;22.31;50.58;101836.31;2355439;75;51431;-84
2024/04/10 09:11:59;;;;;;;5.15;1.67;;;;;;;22.31;50.59;101845.75;2304988;75;51725;-85
2024/04/10 09:15:12;;;;;;;4.87;1.62;;;;;;;22.30;50.59;101850.31;2355716;75;50710;-85
2024/04/10 09:18:15;;;;;;;5.87;1.92;;;;;;;22.31;50.57;101861.42;2332701;75;50684;-84
2024/04/10 09:21:17;;;;;;;4.85;1.42;;;;;;;22.30;50.56;101866.98;2355765;75;51507;-83
2024/04/10 09:24:19;;;;;;;5.95;1.75;;;;;;;22.30;50.58;101874.59;2355906;75;51238;-85
2024/04/10 09:27:21;;;;;;;3.58;1.70;;;;;;;22.30;50.57;101877.28;2302678;75;50950;-84
2024/04/10 09:30:24;;;;;;;3.40;1.60;;;;;;;22.30;50.54;101875.93;2355509;75;51553;-85
2024/04/10 09:33:31;;;;;;;4.67;1.62;;;;;;;22.31;50.55;101879.46;2355726;75;51387;-84
2024/04/10 09:36:33;;;;;;;3.25;1.50;;;;;;;22.30;50.51;101885.37;2330421;75;53338;-85
2024/04/10 09:39:36;;;;;;;4.87;1.70;;;;;;;22.32;50.55;101883.83;2355650;75;50761;-86
2024/04/10 09:42:39;;;;;;;7.42;1.75;;;;;;;22.32;50.75;101887.35;2330454;75;50391;-86
2024/04/10 09:45:45;;;;;;;4.42;1.70;;;;;;;22.33;50.78;101894.45;2355318;75;51568;-84
2024/04/10 09:48:47;;;;;;;6.37;1.80;;;;;;;22.33;50.79;101890.40;2355689;75;50861;-85
2024/04/10 09:51:50;;;;;;;2.92;1.30;;;;;;;22.33;50.76;101901.19;2330417;75;49690;-85
2024/04/10 09:54:52;;;;;;;6.80;1.62;;;;;;;22.33;50.78;101899.84;2355428;75;50709;-84
2024/04/10 09:57:54;;;;;;;2.47;1.40;;;;;;;22.33;50.72;101899.84;2355383;75;51433;-84
2024/04/10 10:00:56;;;;;;;2.85;1.25;;;;;;;22.32;50.67;101898.14;2330415;75;51023;-84
2024/04/10 10:03:58;;;;;;;4.25;1.45;;;;;;;22.32;50.51;101908.09;2355770;75;51467;-86
2024/04/10 10:07:01;;;;;;;5.00;1.65;;;;;;;22.32;50.52;101906.23;2356003;75;50132;-87
2024/04/10 10:10:06;;;;;;;6.25;1.60;;;;;;;22.32;50.43;101900.84;2330842;75;52042;-84
2024/04/10 10:13:09;;;;;;;3.33;1.20;;;;;;;22.30;50.35;101898.85;2355772;75;50401;-84
2024/04/10 10:16:12;;;;;;;3.25;1.42;;;;;;;22.31;50.30;101908.61;2330823;75;49614;-84
2024/04/10 10:19:19;;;;;;;2.77;1.37;;;;;;;22.30;50.25;101908.29;2356105;75;50787;-85
2024/04/10 10:22:21;;;;;;;6.95;1.50;;;;;;;22.31;50.27;101922.61;2355657;75;52029;-83
2024/04/10 10:25:24;;;;;;;2.85;1.50;;;;;;;22.31;50.27;101928.00;2330537;75;49942;-84
2024/04/10 10:28:26;;;;;;;1.77;1.17;;;;;;;22.30;50.28;101931.21;2356058;75;50721;-84
2024/04/10 10:31:28;;;;;;;4.75;1.50;;;;;;;22.30;50.25;101937.09;2331373;75;51396;-85
2024/04/10 10:34:30;;;;;;;3.27;1.50;;;;;;;22.29;50.25;101934.91;2330867;75;50735;-85
2024/04/10 10:37:33;;;;;;;2.52;1.37;;;;;;;22.30;50.22;101939.78;2330890;75;51701;-84
2024/04/10 10:40:35;;;;;;;2.95;1.25;;;;;;;22.30;50.18;101933.91;2330541;75;50138;-84
2024/04/10 10:43:38;;;;;;;2.98;1.30;;;;;;;22.31;50.22;101922.61;2355680;75;50720;-85
2024/04/10 10:46:40;;;;;;;2.80;1.20;;;;;;;22.30;50.34;101931.21;2355703;75;50290;-85
2024/04/10 10:49:42;;;;;;;3.12;1.52;;;;;;;22.31;50.41;101938.78;2304913;75;50106;-85
2024/04/10 10:52:44;;;;;;;5.37;1.55;;;;;;;22.31;50.30;101943.66;2355887;75;51520;-85
2024/04/10 10:55:57;;;;;;;2.37;1.20;;;;;;;22.30;50.19;101946.04;2355883;75;51506;-85
2024/04/10 10:59:08;;;;;;;3.65;1.50;;;;;;;22.31;50.21;101952.27;2330843;75;50540;-84
2024/04/10 11:02:17;;;;;;;4.20;1.20;;;;;;;22.30;50.16;101946.52;2330721;75;51558;-85
2024/04/10 11:05:19;;;;;;;3.37;1.20;;;;;;;22.30;50.13;101948.73;2304520;75;51002;-85
2024/04/10 11:08:23;;;;;;;4.17;1.40;;;;;;;22.31;50.15;101946.88;2356175;75;50412;-85
2024/04/10 11:11:25;;;;;;;3.33;1.27;;;;;;;22.31;50.19;101946.36;2356926;75;51419;-85
2024/04/10 11:14:28;;;;;;;2.42;1.20;;;;;;;22.32;50.30;101951.23;2330552;75;49507;-85
2024/04/10 11:17:30;;;;;;;2.87;1.40;;;;;;;22.31;50.31;101953.10;2355937;75;50483;-85
2024/04/10 11:20:33;;;;;;;3.33;1.25;;;;;;;22.31;50.29;101954.97;2355821;75;50619;-84
2024/04/10 11:23:35;;;;;;;2.87;1.32;;;;;;;22.31;50.27;101965.75;2330600;75;50788;-85
2024/04/10 11:26:37;;;;;;;2.30;1.05;;;;;;;22.31;50.29;101970.62;2330321;75;51531;-85
2024/04/10 11:29:39;;;;;;;2.87;1.47;;;;;;;22.32;50.30;101970.11;2331137;75;51207;-85
2024/04/10 11:32:41;;;;;;;2.22;1.22;;;;;;;22.31;50.30;101977.37;2355880;75;52190;-84
2024/04/10 11:35:44;;;;;;;2.52;1.00;;;;;;;22.31;50.32;101983.28;2355550;75;50580;-85
2024/04/10 11:38:49;;;;;;;1.82;1.00;;;;;;;22.32;50.29;101987.64;2330347;75;50968;-84
2024/04/10 11:41:51;;;;;;;2.75;1.05;;;;;;;22.32;50.32;101985.78;2355514;75;50810;-84
2024/04/10 11:44:53;;;;;;;1.85;0.90;;;;;;;22.32;50.35;101997.08;2355653;75;51470;-85
2024/04/10 11:47:55;;;;;;;1.47;1.15;;;;;;;22.34;50.25;102006.67;2355583;75;51446;-83
2024/04/10 11:50:58;;;;;;;3.40;1.32;;;;;;;22.35;50.14;102004.33;2330449;75;51496;-85
2024/04/10 11:54:00;;;;;;;2.50;1.20;;;;;;;22.36;50.13;102012.73;2330329;75;51155;-85
2024/04/10 11:57:05;;;;;;;2.67;1.10;;;;;;;22.38;50.08;102006.67;2355212;75;51627;-86
2024/04/10 12:00:11;;;;;;;1.77;0.98;;;;;;;22.38;49.91;102002.63;2355562;75;21949;-84
2024/04/10 12:03:10;;;;;;;2.45;1.25;;;;;;;22.38;49.85;102017.45;2328828;75;22250;-85
2024/04/10 12:06:13;;;;;;;2.27;0.90;;;;;;;22.37;49.80;102026.55;2354763;75;51833;-83
2024/04/10 12:09:15;;;;;;;1.45;1.10;;;;;;;22.36;49.81;102023.53;2355130;75;52299;-85
2024/04/10 12:12:17;;;;;;;1.30;1.00;;;;;;;22.37;49.78;102023.02;2330272;75;51733;-85
2024/04/10 12:15:20;;;;;;;2.20;1.02;;;;;;;22.36;49.78;102013.26;2355317;75;50263;-85
2024/04/10 12:18:22;;;;;;;1.25;0.82;;;;;;;22.35;49.82;102021.86;2330850;75;51570;-84
2024/04/10 12:21:24;;;;;;;2.50;1.02;;;;;;;22.34;49.89;102028.77;2330762;75;51075;-84
2024/04/10 12:24:27;;;;;;;2.95;1.10;;;;;;;22.34;49.96;102030.95;2355897;75;51780;-85
2024/04/10 12:27:29;;;;;;;2.52;1.10;;;;;;;22.33;49.95;102033.32;2355411;75;50425;-85
2024/04/10 12:30:31;;;;;;;1.92;1.30;;;;;;;22.35;50.03;102039.87;2355677;75;50299;-85
2024/04/10 12:33:35;;;;;;;2.45;1.35;;;;;;;22.34;49.90;102039.03;2330348;75;50183;-84
2024/04/10 12:39:57;;;;;;;2.67;1.40;;;;;;;22.34;49.88;102039.55;2356202;75;21658;-85
2024/04/10 12:42:59;;;;;;;3.83;1.20;;;;;;;22.32;49.96;102028.92;2355269;75;50760;-83
2024/04/10 12:46:02;;;;;;;3.33;0.80;;;;;;;22.33;49.84;102037.88;2341345;75;51427;-83
2024/04/10 12:49:04;;;;;;;1.80;1.07;;;;;;;22.31;49.73;102042.09;2327431;76;50572;-83
2024/04/10 12:52:06;;;;;;;3.90;1.00;;;;;;;22.33;49.81;102049.50;2318980;76;50383;-82
2024/04/10 12:55:08;;;;;;;5.67;2.90;;;;;;;22.35;51.67;102050.17;2259767;77;50656;-84
2024/04/10 12:58:11;;;;;;;5.42;2.27;;;;;;;22.37;53.34;102045.94;2310085;77;50380;-83
2024/04/10 13:01:13;;;;;;;5.03;1.87;;;;;;;22.38;53.09;102048.47;2311390;77;50863;-84
2024/04/10 13:04:16;;;;;;;4.03;1.37;;;;;;;22.39;52.64;102050.14;2330413;76;50767;-84
2024/04/10 13:07:18;;;;;;;3.45;1.57;;;;;;;22.41;52.25;102050.50;2341308;76;50157;-82
2024/04/10 13:10:20;;;;;;;11.68;1.70;;;;;;;22.41;52.08;102053.19;2319480;76;50093;-81
2024/04/10 13:13:22;;;;;;;13.95;1.70;;;;;;;22.42;51.93;102068.34;2341519;76;51423;-83
2024/04/10 13:16:25;;;;;;;2.92;1.25;;;;;;;22.37;47.81;102072.39;2319344;76;50419;-83
2024/04/10 13:19:28;;;;;;;6.78;1.55;;;;;;;22.31;45.37;102065.01;2341593;75;50068;-83
2024/04/10 13:22:32;;;;;;;2.52;1.10;;;;;;;22.27;43.99;102070.43;2319504;76;51956;-82
2024/04/10 13:25:34;;;;;;;4.22;1.05;;;;;;;22.23;43.82;102066.39;2293216;76;51288;-82
2024/04/10 13:28:39;;;;;;;3.22;1.25;;;;;;;22.20;41.70;102068.09;2341719;76;50733;-83
2024/04/10 13:31:41;;;;;;;3.33;0.90;;;;;;;22.19;41.45;102060.99;2319614;76;50655;-83
2024/04/10 13:34:49;;;;;;;6.03;1.17;;;;;;;22.18;45.01;102062.82;2300498;76;52503;-84
2024/04/10 13:37:51;;;;;;;2.92;1.00;;;;;;;22.20;46.36;102062.70;2314002;77;50337;-83
2024/04/10 13:41:01;;;;;;;9.03;1.20;;;;;;;22.23;45.85;102069.59;2314411;77;50683;-83
2024/04/10 13:44:04;;;;;;;12.13;2.45;;;;;;;22.24;46.29;102067.22;2295388;75;51618;-83
2024/04/10 13:47:07;;;;;;;22.73;2.37;;;;;;;22.25;46.34;102067.06;2337423;75;50855;-84
2024/04/10 13:50:10;;;;;;;17.35;2.70;;;;;;;22.25;47.25;102069.76;2292656;76;52347;-84
2024/04/10 13:53:12;;;;;;;16.15;2.30;;;;;;;22.30;47.37;102074.61;2307432;76;52243;-82
2024/04/10 13:56:14;;;;;;;31.23;3.20;;;;;;;22.31;47.65;102076.31;2320890;75;51491;-81
2024/04/10 13:59:17;;;;;;;46.53;10.23;;;;;;;22.35;48.41;102079.84;2308374;76;50959;-81
2024/04/10 14:02:19;;;;;;;41.28;9.53;;;;;;;22.41;48.77;102084.20;2308845;76;51470;-81
2024/04/10 14:05:21;;;;;;;40.10;8.65;;;;;;;22.44;49.08;102083.85;2320661;76;50768;-79
2024/04/10 14:08:24;;;;;;;40.08;7.47;;;;;;;22.43;49.40;102077.63;2320525;76;50540;-82
2024/04/10 14:11:26;;;;;;;36.38;6.90;;;;;;;22.46;49.56;102093.97;2320139;76;49881;-83